sensor_id;sensor_type;location;lat;lon;timestamp;P1;durP1;ratioP1;P2;durP2;ratioP2
32038;SDS011;18549;42.286;22.688;2022-12-10T00:01:46;16.90;;;5.07;;
32038;SDS011;18549;42.286;22.688;2022-12-10T00:04:13;13.20;;;4.87;;
32038;SDS011;18549;42.286;22.688;2022-12-10T00:06:41;15.47;;;5.73;;
32038;SDS011;18549;42.286;22.688;2022-12-10T00:09:13;11.63;;;5.73;;
32038;SDS011;18549;42.286;22.688;2022-12-10T00:11:41;22.17;;;6.10;;
32038;SDS011;18549;42.286;22.688;2022-12-10T00:14:09;17.40;;;6.33;;
32038;SDS011;18549;42.286;22.688;2022-12-10T00:16:39;16.40;;;5.53;;
32038;SDS011;18549;42.286;22.688;2022-12-10T00:19:06;35.17;;;10.03;;
32038;SDS011;18549;42.286;22.688;2022-12-10T00:21:35;30.30;;;9.87;;
32038;SDS011;18549;42.286;22.688;2022-12-10T00:24:02;21.33;;;8.27;;
32038;SDS011;18549;42.286;22.688;2022-12-10T00:26:32;19.73;;;7.50;;
32038;SDS011;18549;42.286;22.688;2022-12-10T00:29:00;10.67;;;5.50;;
32038;SDS011;18549;42.286;22.688;2022-12-10T00:31:28;31.90;;;7.87;;
32038;SDS011;18549;42.286;22.688;2022-12-10T00:33:59;19.23;;;7.50;;
32038;SDS011;18549;42.286;22.688;2022-12-10T00:36:27;15.87;;;5.80;;
32038;SDS011;18549;42.286;22.688;2022-12-10T00:38:57;13.73;;;5.23;;
32038;SDS011;18549;42.286;22.688;2022-12-10T00:41:24;20.33;;;5.93;;
32038;SDS011;18549;42.286;22.688;2022-12-10T00:43:51;17.23;;;6.73;;
32038;SDS011;18549;42.286;22.688;2022-12-10T00:46:18;21.10;;;4.80;;
32038;SDS011;18549;42.286;22.688;2022-12-10T00:48:45;22.70;;;5.77;;
32038;SDS011;18549;42.286;22.688;2022-12-10T00:51:14;21.30;;;6.20;;
32038;SDS011;18549;42.286;22.688;2022-12-10T00:53:43;17.03;;;5.50;;
32038;SDS011;18549;42.286;22.688;2022-12-10T00:56:12;17.40;;;6.00;;
32038;SDS011;18549;42.286;22.688;2022-12-10T00:58:42;16.83;;;5.43;;
32038;SDS011;18549;42.286;22.688;2022-12-10T01:01:09;18.80;;;5.20;;
32038;SDS011;18549;42.286;22.688;2022-12-10T01:03:41;27.27;;;6.03;;
32038;SDS011;18549;42.286;22.688;2022-12-10T01:06:10;15.90;;;5.57;;
32038;SDS011;18549;42.286;22.688;2022-12-10T01:08:39;19.07;;;5.07;;
32038;SDS011;18549;42.286;22.688;2022-12-10T01:11:07;23.73;;;5.50;;
32038;SDS011;18549;42.286;22.688;2022-12-10T01:13:34;14.47;;;5.03;;
32038;SDS011;18549;42.286;22.688;2022-12-10T01:16:02;19.03;;;5.73;;
32038;SDS011;18549;42.286;22.688;2022-12-10T01:18:29;8.90;;;4.77;;
32038;SDS011;18549;42.286;22.688;2022-12-10T01:21:00;10.33;;;4.73;;
32038;SDS011;18549;42.286;22.688;2022-12-10T01:23:30;10.37;;;6.07;;
32038;SDS011;18549;42.286;22.688;2022-12-10T01:26:00;18.73;;;5.67;;
32038;SDS011;18549;42.286;22.688;2022-12-10T01:28:30;15.77;;;6.20;;
32038;SDS011;18549;42.286;22.688;2022-12-10T01:31:01;16.40;;;5.37;;
32038;SDS011;18549;42.286;22.688;2022-12-10T01:33:29;13.23;;;6.40;;
32038;SDS011;18549;42.286;22.688;2022-12-10T01:35:56;17.70;;;6.17;;
32038;SDS011;18549;42.286;22.688;2022-12-10T01:38:23;19.37;;;5.67;;
32038;SDS011;18549;42.286;22.688;2022-12-10T01:40:50;20.47;;;6.43;;
32038;SDS011;18549;42.286;22.688;2022-12-10T01:43:18;24.10;;;6.27;;
32038;SDS011;18549;42.286;22.688;2022-12-10T01:45:45;19.30;;;5.17;;
32038;SDS011;18549;42.286;22.688;2022-12-10T01:48:12;17.40;;;5.97;;
32038;SDS011;18549;42.286;22.688;2022-12-10T01:50:39;19.03;;;7.33;;
32038;SDS011;18549;42.286;22.688;2022-12-10T01:53:06;18.53;;;5.47;;
32038;SDS011;18549;42.286;22.688;2022-12-10T01:55:47;22.37;;;5.53;;
32038;SDS011;18549;42.286;22.688;2022-12-10T01:58:16;18.87;;;5.20;;
32038;SDS011;18549;42.286;22.688;2022-12-10T02:00:51;18.10;;;10.23;;
32038;SDS011;18549;42.286;22.688;2022-12-10T02:03:28;12.53;;;5.60;;
32038;SDS011;18549;42.286;22.688;2022-12-10T02:06:06;14.37;;;5.23;;
32038;SDS011;18549;42.286;22.688;2022-12-10T02:08:40;20.73;;;7.67;;
32038;SDS011;18549;42.286;22.688;2022-12-10T02:11:14;11.17;;;6.07;;
32038;SDS011;18549;42.286;22.688;2022-12-10T02:13:51;18.87;;;5.17;;
32038;SDS011;18549;42.286;22.688;2022-12-10T02:16:26;10.20;;;4.07;;
32038;SDS011;18549;42.286;22.688;2022-12-10T02:19:00;22.50;;;5.43;;
32038;SDS011;18549;42.286;22.688;2022-12-10T02:21:34;13.07;;;6.20;;
32038;SDS011;18549;42.286;22.688;2022-12-10T02:24:05;13.03;;;4.87;;
32038;SDS011;18549;42.286;22.688;2022-12-10T02:26:38;11.17;;;4.70;;
32038;SDS011;18549;42.286;22.688;2022-12-10T02:29:12;13.60;;;4.83;;
32038;SDS011;18549;42.286;22.688;2022-12-10T02:31:41;8.90;;;5.10;;
32038;SDS011;18549;42.286;22.688;2022-12-10T02:34:13;10.90;;;3.60;;
32038;SDS011;18549;42.286;22.688;2022-12-10T02:36:43;15.50;;;4.00;;
32038;SDS011;18549;42.286;22.688;2022-12-10T02:39:14;10.70;;;3.40;;
32038;SDS011;18549;42.286;22.688;2022-12-10T02:41:46;11.87;;;4.03;;
32038;SDS011;18549;42.286;22.688;2022-12-10T02:44:19;15.17;;;5.73;;
32038;SDS011;18549;42.286;22.688;2022-12-10T02:46:50;12.70;;;4.40;;
32038;SDS011;18549;42.286;22.688;2022-12-10T02:49:19;16.30;;;5.00;;
32038;SDS011;18549;42.286;22.688;2022-12-10T02:51:47;11.20;;;4.37;;
32038;SDS011;18549;42.286;22.688;2022-12-10T02:54:34;15.40;;;4.43;;
32038;SDS011;18549;42.286;22.688;2022-12-10T02:57:18;9.47;;;3.53;;
32038;SDS011;18549;42.286;22.688;2022-12-10T03:00:03;9.33;;;3.73;;
32038;SDS011;18549;42.286;22.688;2022-12-10T03:02:39;8.63;;;3.30;;
32038;SDS011;18549;42.286;22.688;2022-12-10T03:05:13;8.07;;;3.43;;
32038;SDS011;18549;42.286;22.688;2022-12-10T03:07:46;12.60;;;3.40;;
32038;SDS011;18549;42.286;22.688;2022-12-10T03:10:21;11.77;;;3.67;;
32038;SDS011;18549;42.286;22.688;2022-12-10T03:12:54;11.63;;;3.10;;
32038;SDS011;18549;42.286;22.688;2022-12-10T03:15:27;11.90;;;3.80;;
32038;SDS011;18549;42.286;22.688;2022-12-10T03:17:56;10.30;;;3.50;;
32038;SDS011;18549;42.286;22.688;2022-12-10T03:20:28;11.13;;;4.07;;
32038;SDS011;18549;42.286;22.688;2022-12-10T03:22:57;13.87;;;3.30;;
32038;SDS011;18549;42.286;22.688;2022-12-10T03:25:28;10.57;;;3.83;;
32038;SDS011;18549;42.286;22.688;2022-12-10T03:27:57;6.87;;;3.20;;
32038;SDS011;18549;42.286;22.688;2022-12-10T03:30:27;12.83;;;4.20;;
32038;SDS011;18549;42.286;22.688;2022-12-10T03:32:57;11.37;;;3.23;;
32038;SDS011;18549;42.286;22.688;2022-12-10T03:35:24;21.03;;;3.80;;
32038;SDS011;18549;42.286;22.688;2022-12-10T03:37:51;8.57;;;2.90;;
32038;SDS011;18549;42.286;22.688;2022-12-10T03:40:20;12.73;;;4.37;;
32038;SDS011;18549;42.286;22.688;2022-12-10T03:42:49;12.50;;;3.30;;
32038;SDS011;18549;42.286;22.688;2022-12-10T03:45:16;10.67;;;4.43;;
32038;SDS011;18549;42.286;22.688;2022-12-10T03:47:47;14.80;;;3.40;;
32038;SDS011;18549;42.286;22.688;2022-12-10T03:50:15;17.53;;;4.50;;
32038;SDS011;18549;42.286;22.688;2022-12-10T03:52:42;11.40;;;2.93;;
32038;SDS011;18549;42.286;22.688;2022-12-10T03:55:09;9.13;;;2.73;;
32038;SDS011;18549;42.286;22.688;2022-12-10T03:57:36;12.13;;;2.57;;
32038;SDS011;18549;42.286;22.688;2022-12-10T04:00:04;10.17;;;3.30;;
32038;SDS011;18549;42.286;22.688;2022-12-10T04:02:32;9.27;;;2.70;;
32038;SDS011;18549;42.286;22.688;2022-12-10T04:05:02;9.43;;;3.67;;
32038;SDS011;18549;42.286;22.688;2022-12-10T04:07:31;6.33;;;3.30;;
32038;SDS011;18549;42.286;22.688;2022-12-10T04:09:58;12.77;;;3.73;;
32038;SDS011;18549;42.286;22.688;2022-12-10T04:12:25;10.57;;;3.40;;
32038;SDS011;18549;42.286;22.688;2022-12-10T04:14:52;11.03;;;4.33;;
32038;SDS011;18549;42.286;22.688;2022-12-10T04:17:36;21.00;;;7.40;;
32038;SDS011;18549;42.286;22.688;2022-12-10T04:20:05;20.50;;;8.03;;
32038;SDS011;18549;42.286;22.688;2022-12-10T04:22:56;14.73;;;7.90;;
32038;SDS011;18549;42.286;22.688;2022-12-10T04:25:40;27.03;;;8.77;;
32038;SDS011;18549;42.286;22.688;2022-12-10T04:28:25;24.63;;;10.90;;
32038;SDS011;18549;42.286;22.688;2022-12-10T04:30:53;24.43;;;11.70;;
32038;SDS011;18549;42.286;22.688;2022-12-10T04:33:24;22.67;;;7.33;;
32038;SDS011;18549;42.286;22.688;2022-12-10T04:35:53;17.17;;;6.27;;
32038;SDS011;18549;42.286;22.688;2022-12-10T04:38:20;20.23;;;9.87;;
32038;SDS011;18549;42.286;22.688;2022-12-10T04:40:47;31.43;;;15.43;;
32038;SDS011;18549;42.286;22.688;2022-12-10T04:43:14;20.40;;;12.03;;
32038;SDS011;18549;42.286;22.688;2022-12-10T04:45:41;25.17;;;10.43;;
32038;SDS011;18549;42.286;22.688;2022-12-10T04:48:08;22.60;;;10.67;;
32038;SDS011;18549;42.286;22.688;2022-12-10T04:50:35;17.50;;;9.07;;
32038;SDS011;18549;42.286;22.688;2022-12-10T04:53:03;18.50;;;9.67;;
32038;SDS011;18549;42.286;22.688;2022-12-10T04:55:30;18.63;;;8.77;;
32038;SDS011;18549;42.286;22.688;2022-12-10T04:58:00;15.13;;;8.07;;
32038;SDS011;18549;42.286;22.688;2022-12-10T05:00:27;11.87;;;5.80;;
32038;SDS011;18549;42.286;22.688;2022-12-10T05:02:54;22.30;;;7.77;;
32038;SDS011;18549;42.286;22.688;2022-12-10T05:05:20;10.37;;;5.27;;
32038;SDS011;18549;42.286;22.688;2022-12-10T05:07:47;17.07;;;5.23;;
32038;SDS011;18549;42.286;22.688;2022-12-10T05:10:15;15.57;;;5.20;;
32038;SDS011;18549;42.286;22.688;2022-12-10T05:12:42;7.77;;;5.33;;
32038;SDS011;18549;42.286;22.688;2022-12-10T05:15:09;14.60;;;7.07;;
32038;SDS011;18549;42.286;22.688;2022-12-10T05:17:36;20.50;;;7.13;;
32038;SDS011;18549;42.286;22.688;2022-12-10T05:20:03;14.90;;;6.60;;
32038;SDS011;18549;42.286;22.688;2022-12-10T05:22:31;26.80;;;11.53;;
32038;SDS011;18549;42.286;22.688;2022-12-10T05:25:16;19.83;;;9.80;;
32038;SDS011;18549;42.286;22.688;2022-12-10T05:27:43;23.83;;;12.13;;
32038;SDS011;18549;42.286;22.688;2022-12-10T05:30:11;24.07;;;11.70;;
32038;SDS011;18549;42.286;22.688;2022-12-10T05:32:38;28.03;;;12.80;;
32038;SDS011;18549;42.286;22.688;2022-12-10T05:35:05;25.13;;;13.93;;
32038;SDS011;18549;42.286;22.688;2022-12-10T05:37:33;23.43;;;11.67;;
32038;SDS011;18549;42.286;22.688;2022-12-10T05:40:00;23.67;;;12.10;;
32038;SDS011;18549;42.286;22.688;2022-12-10T05:42:29;20.10;;;11.93;;
32038;SDS011;18549;42.286;22.688;2022-12-10T05:44:56;31.70;;;11.90;;
32038;SDS011;18549;42.286;22.688;2022-12-10T05:47:23;33.73;;;17.30;;
32038;SDS011;18549;42.286;22.688;2022-12-10T05:49:51;46.63;;;30.33;;
32038;SDS011;18549;42.286;22.688;2022-12-10T05:52:17;53.47;;;32.47;;
32038;SDS011;18549;42.286;22.688;2022-12-10T05:54:44;36.17;;;25.13;;
32038;SDS011;18549;42.286;22.688;2022-12-10T05:57:11;43.93;;;27.73;;
32038;SDS011;18549;42.286;22.688;2022-12-10T05:59:39;34.10;;;23.00;;
32038;SDS011;18549;42.286;22.688;2022-12-10T06:02:08;36.57;;;23.17;;
32038;SDS011;18549;42.286;22.688;2022-12-10T06:04:35;26.00;;;16.63;;
32038;SDS011;18549;42.286;22.688;2022-12-10T06:07:02;32.07;;;19.50;;
32038;SDS011;18549;42.286;22.688;2022-12-10T06:09:28;27.33;;;17.30;;
32038;SDS011;18549;42.286;22.688;2022-12-10T06:11:56;29.23;;;16.47;;
32038;SDS011;18549;42.286;22.688;2022-12-10T06:14:23;34.70;;;19.07;;
32038;SDS011;18549;42.286;22.688;2022-12-10T06:16:51;41.53;;;20.97;;
32038;SDS011;18549;42.286;22.688;2022-12-10T06:19:19;38.27;;;22.50;;
32038;SDS011;18549;42.286;22.688;2022-12-10T06:21:46;47.87;;;26.37;;
32038;SDS011;18549;42.286;22.688;2022-12-10T06:24:17;37.23;;;25.33;;
32038;SDS011;18549;42.286;22.688;2022-12-10T06:26:43;45.07;;;25.70;;
32038;SDS011;18549;42.286;22.688;2022-12-10T06:29:10;45.63;;;22.47;;
32038;SDS011;18549;42.286;22.688;2022-12-10T06:31:37;45.40;;;24.03;;
32038;SDS011;18549;42.286;22.688;2022-12-10T06:34:06;45.60;;;22.77;;
32038;SDS011;18549;42.286;22.688;2022-12-10T06:36:33;42.20;;;21.00;;
32038;SDS011;18549;42.286;22.688;2022-12-10T06:39:00;40.13;;;21.27;;
32038;SDS011;18549;42.286;22.688;2022-12-10T06:41:28;35.50;;;17.90;;
32038;SDS011;18549;42.286;22.688;2022-12-10T06:43:55;32.73;;;19.13;;
32038;SDS011;18549;42.286;22.688;2022-12-10T06:46:23;30.93;;;19.53;;
32038;SDS011;18549;42.286;22.688;2022-12-10T06:48:51;56.80;;;32.40;;
32038;SDS011;18549;42.286;22.688;2022-12-10T06:51:19;87.57;;;47.40;;
32038;SDS011;18549;42.286;22.688;2022-12-10T06:53:46;56.67;;;34.73;;
32038;SDS011;18549;42.286;22.688;2022-12-10T06:56:14;66.13;;;37.47;;
32038;SDS011;18549;42.286;22.688;2022-12-10T06:58:42;80.60;;;45.30;;
32038;SDS011;18549;42.286;22.688;2022-12-10T07:01:13;80.40;;;48.83;;
32038;SDS011;18549;42.286;22.688;2022-12-10T07:03:47;80.43;;;41.80;;
32038;SDS011;18549;42.286;22.688;2022-12-10T07:06:15;62.30;;;35.00;;
32038;SDS011;18549;42.286;22.688;2022-12-10T07:08:43;60.50;;;35.10;;
32038;SDS011;18549;42.286;22.688;2022-12-10T07:11:11;50.90;;;29.63;;
32038;SDS011;18549;42.286;22.688;2022-12-10T07:13:39;43.73;;;28.73;;
32038;SDS011;18549;42.286;22.688;2022-12-10T07:16:11;49.17;;;29.90;;
32038;SDS011;18549;42.286;22.688;2022-12-10T07:18:40;56.17;;;30.43;;
32038;SDS011;18549;42.286;22.688;2022-12-10T07:21:14;54.43;;;31.80;;
32038;SDS011;18549;42.286;22.688;2022-12-10T07:23:42;63.60;;;36.90;;
32038;SDS011;18549;42.286;22.688;2022-12-10T07:26:10;61.87;;;35.13;;
32038;SDS011;18549;42.286;22.688;2022-12-10T07:28:37;62.77;;;34.80;;
32038;SDS011;18549;42.286;22.688;2022-12-10T07:31:05;54.20;;;34.53;;
32038;SDS011;18549;42.286;22.688;2022-12-10T07:33:33;51.03;;;33.27;;
32038;SDS011;18549;42.286;22.688;2022-12-10T07:36:02;52.67;;;31.23;;
32038;SDS011;18549;42.286;22.688;2022-12-10T07:38:30;57.63;;;35.07;;
32038;SDS011;18549;42.286;22.688;2022-12-10T07:41:01;75.97;;;43.77;;
32038;SDS011;18549;42.286;22.688;2022-12-10T07:43:28;59.37;;;35.00;;
32038;SDS011;18549;42.286;22.688;2022-12-10T07:46:02;52.37;;;34.57;;
32038;SDS011;18549;42.286;22.688;2022-12-10T07:48:29;71.57;;;43.33;;
32038;SDS011;18549;42.286;22.688;2022-12-10T07:50:57;100.77;;;43.40;;
32038;SDS011;18549;42.286;22.688;2022-12-10T07:53:24;70.70;;;39.97;;
32038;SDS011;18549;42.286;22.688;2022-12-10T07:55:51;74.93;;;38.60;;
32038;SDS011;18549;42.286;22.688;2022-12-10T07:58:19;63.53;;;37.67;;
32038;SDS011;18549;42.286;22.688;2022-12-10T08:00:46;57.27;;;35.60;;
32038;SDS011;18549;42.286;22.688;2022-12-10T08:03:13;63.17;;;36.23;;
32038;SDS011;18549;42.286;22.688;2022-12-10T08:05:41;78.30;;;43.60;;
32038;SDS011;18549;42.286;22.688;2022-12-10T08:08:07;58.77;;;35.07;;
32038;SDS011;18549;42.286;22.688;2022-12-10T08:10:38;48.80;;;26.83;;
32038;SDS011;18549;42.286;22.688;2022-12-10T08:13:05;56.10;;;26.77;;
32038;SDS011;18549;42.286;22.688;2022-12-10T08:15:34;22.73;;;6.33;;
32038;SDS011;18549;42.286;22.688;2022-12-10T08:18:01;28.80;;;15.93;;
32038;SDS011;18549;42.286;22.688;2022-12-10T08:20:28;38.37;;;26.00;;
32038;SDS011;18549;42.286;22.688;2022-12-10T08:22:55;29.03;;;16.63;;
32038;SDS011;18549;42.286;22.688;2022-12-10T08:25:22;50.27;;;31.90;;
32038;SDS011;18549;42.286;22.688;2022-12-10T08:27:48;41.80;;;21.80;;
32038;SDS011;18549;42.286;22.688;2022-12-10T08:30:15;36.93;;;17.77;;
32038;SDS011;18549;42.286;22.688;2022-12-10T08:32:44;51.87;;;26.43;;
32038;SDS011;18549;42.286;22.688;2022-12-10T08:35:10;42.80;;;27.17;;
32038;SDS011;18549;42.286;22.688;2022-12-10T08:37:40;43.57;;;24.70;;
32038;SDS011;18549;42.286;22.688;2022-12-10T08:40:07;45.93;;;23.60;;
32038;SDS011;18549;42.286;22.688;2022-12-10T08:42:35;51.67;;;26.53;;
32038;SDS011;18549;42.286;22.688;2022-12-10T08:45:03;46.73;;;29.67;;
32038;SDS011;18549;42.286;22.688;2022-12-10T08:47:31;47.50;;;25.17;;
32038;SDS011;18549;42.286;22.688;2022-12-10T08:50:01;38.97;;;22.27;;
32038;SDS011;18549;42.286;22.688;2022-12-10T08:52:29;40.90;;;22.17;;
32038;SDS011;18549;42.286;22.688;2022-12-10T08:54:56;38.37;;;23.27;;
32038;SDS011;18549;42.286;22.688;2022-12-10T08:57:23;42.20;;;23.37;;
32038;SDS011;18549;42.286;22.688;2022-12-10T08:59:50;42.47;;;22.90;;
32038;SDS011;18549;42.286;22.688;2022-12-10T09:02:16;39.53;;;19.00;;
32038;SDS011;18549;42.286;22.688;2022-12-10T09:04:43;40.20;;;20.20;;
32038;SDS011;18549;42.286;22.688;2022-12-10T09:07:13;40.87;;;16.10;;
32038;SDS011;18549;42.286;22.688;2022-12-10T09:09:40;40.00;;;20.60;;
32038;SDS011;18549;42.286;22.688;2022-12-10T09:12:07;45.90;;;22.70;;
32038;SDS011;18549;42.286;22.688;2022-12-10T09:14:34;47.43;;;24.20;;
32038;SDS011;18549;42.286;22.688;2022-12-10T09:17:03;39.40;;;20.83;;
32038;SDS011;18549;42.286;22.688;2022-12-10T09:19:30;29.00;;;16.07;;
32038;SDS011;18549;42.286;22.688;2022-12-10T09:21:58;24.27;;;13.23;;
32038;SDS011;18549;42.286;22.688;2022-12-10T09:24:26;17.57;;;10.30;;
32038;SDS011;18549;42.286;22.688;2022-12-10T09:26:54;21.33;;;10.60;;
32038;SDS011;18549;42.286;22.688;2022-12-10T09:29:23;22.63;;;8.40;;
32038;SDS011;18549;42.286;22.688;2022-12-10T09:31:50;19.17;;;8.73;;
32038;SDS011;18549;42.286;22.688;2022-12-10T09:34:17;18.50;;;10.70;;
32038;SDS011;18549;42.286;22.688;2022-12-10T09:36:44;16.33;;;9.03;;
32038;SDS011;18549;42.286;22.688;2022-12-10T09:39:11;14.47;;;9.37;;
32038;SDS011;18549;42.286;22.688;2022-12-10T09:44:32;32.10;;;13.03;;
32038;SDS011;18549;42.286;22.688;2022-12-10T09:47:08;28.63;;;14.90;;
32038;SDS011;18549;42.286;22.688;2022-12-10T09:49:40;36.63;;;19.83;;
32038;SDS011;18549;42.286;22.688;2022-12-10T09:52:20;34.70;;;16.00;;
32038;SDS011;18549;42.286;22.688;2022-12-10T09:54:49;26.87;;;13.03;;
32038;SDS011;18549;42.286;22.688;2022-12-10T09:57:22;18.80;;;11.50;;
32038;SDS011;18549;42.286;22.688;2022-12-10T09:59:53;16.53;;;7.80;;
32038;SDS011;18549;42.286;22.688;2022-12-10T10:02:22;14.90;;;7.97;;
32038;SDS011;18549;42.286;22.688;2022-12-10T10:04:56;16.47;;;7.83;;
32038;SDS011;18549;42.286;22.688;2022-12-10T10:07:28;12.30;;;9.17;;
32038;SDS011;18549;42.286;22.688;2022-12-10T10:09:57;20.30;;;11.40;;
32038;SDS011;18549;42.286;22.688;2022-12-10T10:12:27;33.77;;;15.50;;
32038;SDS011;18549;42.286;22.688;2022-12-10T10:14:57;21.20;;;11.83;;
32038;SDS011;18549;42.286;22.688;2022-12-10T10:17:26;20.20;;;10.17;;
32038;SDS011;18549;42.286;22.688;2022-12-10T10:19:59;22.20;;;8.90;;
32038;SDS011;18549;42.286;22.688;2022-12-10T10:22:26;18.00;;;10.37;;
32038;SDS011;18549;42.286;22.688;2022-12-10T10:24:53;12.50;;;6.20;;
32038;SDS011;18549;42.286;22.688;2022-12-10T10:27:29;11.03;;;4.57;;
32038;SDS011;18549;42.286;22.688;2022-12-10T10:29:57;8.83;;;3.30;;
32038;SDS011;18549;42.286;22.688;2022-12-10T10:32:28;5.23;;;2.00;;
32038;SDS011;18549;42.286;22.688;2022-12-10T10:35:19;6.87;;;2.70;;
32038;SDS011;18549;42.286;22.688;2022-12-10T10:37:48;8.45;;;2.83;;
32038;SDS011;18549;42.286;22.688;2022-12-10T10:40:21;2.80;;;1.87;;
32038;SDS011;18549;42.286;22.688;2022-12-10T10:42:53;8.87;;;2.90;;
32038;SDS011;18549;42.286;22.688;2022-12-10T10:48:16;12.60;;;2.13;;
32038;SDS011;18549;42.286;22.688;2022-12-10T10:50:45;7.07;;;1.63;;
32038;SDS011;18549;42.286;22.688;2022-12-10T10:53:19;7.90;;;3.43;;
32038;SDS011;18549;42.286;22.688;2022-12-10T10:55:48;9.33;;;4.83;;
32038;SDS011;18549;42.286;22.688;2022-12-10T10:58:19;10.73;;;3.60;;
32038;SDS011;18549;42.286;22.688;2022-12-10T11:00:56;9.60;;;3.00;;
32038;SDS011;18549;42.286;22.688;2022-12-10T11:03:25;10.03;;;3.40;;
32038;SDS011;18549;42.286;22.688;2022-12-10T11:05:54;17.63;;;5.90;;
32038;SDS011;18549;42.286;22.688;2022-12-10T11:08:23;9.87;;;4.23;;
32038;SDS011;18549;42.286;22.688;2022-12-10T11:10:54;13.20;;;3.37;;
32038;SDS011;18549;42.286;22.688;2022-12-10T11:13:28;8.07;;;3.20;;
32038;SDS011;18549;42.286;22.688;2022-12-10T11:15:57;14.03;;;3.53;;
32038;SDS011;18549;42.286;22.688;2022-12-10T11:18:29;8.47;;;3.50;;
32038;SDS011;18549;42.286;22.688;2022-12-10T11:20:59;15.50;;;4.03;;
32038;SDS011;18549;42.286;22.688;2022-12-10T11:23:28;8.13;;;4.40;;
32038;SDS011;18549;42.286;22.688;2022-12-10T11:25:58;14.07;;;4.87;;
32038;SDS011;18549;42.286;22.688;2022-12-10T11:28:36;12.40;;;3.77;;
32038;SDS011;18549;42.286;22.688;2022-12-10T11:31:18;16.57;;;3.60;;
32038;SDS011;18549;42.286;22.688;2022-12-10T11:33:55;9.17;;;3.30;;
32038;SDS011;18549;42.286;22.688;2022-12-10T11:36:34;9.50;;;3.00;;
32038;SDS011;18549;42.286;22.688;2022-12-10T11:39:13;5.23;;;2.83;;
32038;SDS011;18549;42.286;22.688;2022-12-10T11:41:48;7.93;;;3.47;;
32038;SDS011;18549;42.286;22.688;2022-12-10T11:44:23;11.37;;;3.23;;
32038;SDS011;18549;42.286;22.688;2022-12-10T11:47:03;7.60;;;2.73;;
32038;SDS011;18549;42.286;22.688;2022-12-10T11:49:47;12.00;;;3.37;;
32038;SDS011;18549;42.286;22.688;2022-12-10T11:52:29;17.23;;;4.10;;
32038;SDS011;18549;42.286;22.688;2022-12-10T11:55:09;10.90;;;3.70;;
32038;SDS011;18549;42.286;22.688;2022-12-10T11:57:47;8.37;;;4.13;;
32038;SDS011;18549;42.286;22.688;2022-12-10T12:00:21;13.80;;;5.73;;
32038;SDS011;18549;42.286;22.688;2022-12-10T12:05:53;31.80;;;11.07;;
32038;SDS011;18549;42.286;22.688;2022-12-10T12:08:34;11.57;;;4.37;;
32038;SDS011;18549;42.286;22.688;2022-12-10T12:11:19;11.90;;;4.60;;
32038;SDS011;18549;42.286;22.688;2022-12-10T12:13:56;10.47;;;3.10;;
32038;SDS011;18549;42.286;22.688;2022-12-10T12:16:29;14.65;;;3.35;;
32038;SDS011;18549;42.286;22.688;2022-12-10T12:19:02;10.07;;;4.13;;
32038;SDS011;18549;42.286;22.688;2022-12-10T12:21:31;13.03;;;4.53;;
32038;SDS011;18549;42.286;22.688;2022-12-10T12:23:59;9.53;;;3.43;;
32038;SDS011;18549;42.286;22.688;2022-12-10T12:26:31;7.50;;;3.50;;
32038;SDS011;18549;42.286;22.688;2022-12-10T12:29:03;13.23;;;3.57;;
32038;SDS011;18549;42.286;22.688;2022-12-10T12:31:40;10.20;;;3.83;;
32038;SDS011;18549;42.286;22.688;2022-12-10T12:34:13;9.70;;;3.13;;
32038;SDS011;18549;42.286;22.688;2022-12-10T12:36:44;21.23;;;3.70;;
32038;SDS011;18549;42.286;22.688;2022-12-10T12:39:14;13.47;;;5.00;;
32038;SDS011;18549;42.286;22.688;2022-12-10T12:41:48;11.02;;;4.80;;
32038;SDS011;18549;42.286;22.688;2022-12-10T12:44:22;10.98;;;4.60;;
32038;SDS011;18549;42.286;22.688;2022-12-10T12:46:56;15.15;;;5.22;;
32038;SDS011;18549;42.286;22.688;2022-12-10T12:49:28;18.87;;;5.33;;
32038;SDS011;18549;42.286;22.688;2022-12-10T12:52:00;12.67;;;3.97;;
32038;SDS011;18549;42.286;22.688;2022-12-10T12:54:30;8.93;;;2.73;;
32038;SDS011;18549;42.286;22.688;2022-12-10T12:56:59;14.00;;;3.70;;
32038;SDS011;18549;42.286;22.688;2022-12-10T12:59:34;9.90;;;5.40;;
32038;SDS011;18549;42.286;22.688;2022-12-10T13:02:17;11.20;;;5.77;;
32038;SDS011;18549;42.286;22.688;2022-12-10T13:04:51;8.13;;;4.10;;
32038;SDS011;18549;42.286;22.688;2022-12-10T13:07:32;9.43;;;5.13;;
32038;SDS011;18549;42.286;22.688;2022-12-10T13:13:05;15.63;;;5.30;;
32038;SDS011;18549;42.286;22.688;2022-12-10T13:15:42;12.30;;;4.37;;
32038;SDS011;18549;42.286;22.688;2022-12-10T13:21:16;12.67;;;6.37;;
32038;SDS011;18549;42.286;22.688;2022-12-10T13:24:04;17.63;;;8.40;;
32038;SDS011;18549;42.286;22.688;2022-12-10T13:26:33;7.77;;;3.80;;
32038;SDS011;18549;42.286;22.688;2022-12-10T13:29:12;12.87;;;6.10;;
32038;SDS011;18549;42.286;22.688;2022-12-10T13:31:54;89.87;;;52.23;;
32038;SDS011;18549;42.286;22.688;2022-12-10T13:34:31;27.87;;;13.70;;
32038;SDS011;18549;42.286;22.688;2022-12-10T13:37:04;193.50;;;88.87;;
32038;SDS011;18549;42.286;22.688;2022-12-10T13:39:45;186.50;;;75.43;;
32038;SDS011;18549;42.286;22.688;2022-12-10T13:45:27;18.17;;;9.53;;
32038;SDS011;18549;42.286;22.688;2022-12-10T13:48:15;22.50;;;10.90;;
32038;SDS011;18549;42.286;22.688;2022-12-10T13:53:59;18.47;;;6.90;;
32038;SDS011;18549;42.286;22.688;2022-12-10T13:56:36;19.63;;;9.10;;
32038;SDS011;18549;42.286;22.688;2022-12-10T13:59:16;16.25;;;7.85;;
32038;SDS011;18549;42.286;22.688;2022-12-10T14:01:55;20.17;;;11.77;;
32038;SDS011;18549;42.286;22.688;2022-12-10T14:04:57;24.10;;;12.83;;
32038;SDS011;18549;42.286;22.688;2022-12-10T14:07:38;95.30;;;47.57;;
32038;SDS011;18549;42.286;22.688;2022-12-10T14:10:10;18.70;;;9.97;;
32038;SDS011;18549;42.286;22.688;2022-12-10T14:12:41;10.43;;;5.80;;
32038;SDS011;18549;42.286;22.688;2022-12-10T14:15:14;11.20;;;5.77;;
32038;SDS011;18549;42.286;22.688;2022-12-10T14:17:44;13.77;;;7.03;;
32038;SDS011;18549;42.286;22.688;2022-12-10T14:20:13;11.10;;;5.17;;
32038;SDS011;18549;42.286;22.688;2022-12-10T14:22:46;22.73;;;6.47;;
32038;SDS011;18549;42.286;22.688;2022-12-10T14:25:15;16.90;;;6.93;;
32038;SDS011;18549;42.286;22.688;2022-12-10T14:27:44;10.57;;;4.90;;
32038;SDS011;18549;42.286;22.688;2022-12-10T14:30:15;10.33;;;4.10;;
32038;SDS011;18549;42.286;22.688;2022-12-10T14:32:43;11.47;;;4.87;;
32038;SDS011;18549;42.286;22.688;2022-12-10T14:35:12;13.87;;;5.90;;
32038;SDS011;18549;42.286;22.688;2022-12-10T14:37:41;22.03;;;9.50;;
32038;SDS011;18549;42.286;22.688;2022-12-10T14:40:17;32.30;;;14.47;;
32038;SDS011;18549;42.286;22.688;2022-12-10T14:42:47;29.50;;;13.20;;
32038;SDS011;18549;42.286;22.688;2022-12-10T14:45:15;30.63;;;10.77;;
32038;SDS011;18549;42.286;22.688;2022-12-10T14:47:42;32.37;;;13.37;;
32038;SDS011;18549;42.286;22.688;2022-12-10T14:50:10;38.30;;;13.90;;
32038;SDS011;18549;42.286;22.688;2022-12-10T14:52:39;25.67;;;11.73;;
32038;SDS011;18549;42.286;22.688;2022-12-10T14:55:11;41.13;;;23.87;;
32038;SDS011;18549;42.286;22.688;2022-12-10T14:57:41;79.17;;;42.93;;
32038;SDS011;18549;42.286;22.688;2022-12-10T15:00:12;17.40;;;9.07;;